sensor_id;sensor_type;location;lat;lon;timestamp;P1;durP1;ratioP1;P2;durP2;ratioP2
33644;SDS011;19986;48.190;16.366;2022-12-18T05:05:08;62.42;;;56.65;;
33644;SDS011;19986;48.190;16.366;2022-12-18T05:07:35;61.78;;;56.47;;
33644;SDS011;19986;48.190;16.366;2022-12-18T05:10:01;61.67;;;56.65;;
33644;SDS011;19986;48.190;16.366;2022-12-18T05:12:28;61.13;;;56.28;;
33644;SDS011;19986;48.190;16.366;2022-12-18T05:14:54;57.90;;;53.05;;
33644;SDS011;19986;48.190;16.366;2022-12-18T05:17:20;58.20;;;53.85;;
33644;SDS011;19986;48.190;16.366;2022-12-18T05:19:46;59.85;;;55.38;;
33644;SDS011;19986;48.190;16.366;2022-12-18T05:22:11;58.90;;;53.65;;
33644;SDS011;19986;48.190;16.366;2022-12-18T05:24:37;57.85;;;53.65;;
33644;SDS011;19986;48.190;16.366;2022-12-18T05:27:04;59.60;;;54.92;;
33644;SDS011;19986;48.190;16.366;2022-12-18T05:29:29;59.22;;;54.80;;
33644;SDS011;19986;48.190;16.366;2022-12-18T05:31:55;59.90;;;55.50;;
33644;SDS011;19986;48.190;16.366;2022-12-18T05:34:21;60.40;;;56.17;;
33644;SDS011;19986;48.190;16.366;2022-12-18T05:36:47;59.92;;;55.63;;
33644;SDS011;19986;48.190;16.366;2022-12-18T05:39:13;56.13;;;52.00;;
33644;SDS011;19986;48.190;16.366;2022-12-18T05:41:39;59.28;;;54.97;;
33644;SDS011;19986;48.190;16.366;2022-12-18T05:44:05;57.40;;;53.30;;
33644;SDS011;19986;48.190;16.366;2022-12-18T05:46:31;59.30;;;54.92;;
33644;SDS011;19986;48.190;16.366;2022-12-18T05:49:00;58.22;;;53.88;;
33644;SDS011;19986;48.190;16.366;2022-12-18T05:51:26;60.00;;;55.05;;
33644;SDS011;19986;48.190;16.366;2022-12-18T05:53:53;58.15;;;53.90;;
33644;SDS011;19986;48.190;16.366;2022-12-18T05:56:20;61.00;;;56.58;;
33644;SDS011;19986;48.190;16.366;2022-12-18T05:58:47;61.45;;;57.05;;
33644;SDS011;19986;48.190;16.366;2022-12-18T06:01:18;60.90;;;56.40;;
33644;SDS011;19986;48.190;16.366;2022-12-18T06:03:46;60.30;;;55.53;;
33644;SDS011;19986;48.190;16.366;2022-12-18T06:06:19;61.80;;;57.25;;
33644;SDS011;19986;48.190;16.366;2022-12-18T06:08:47;58.70;;;54.40;;
33644;SDS011;19986;48.190;16.366;2022-12-18T06:11:16;60.97;;;56.28;;
33644;SDS011;19986;48.190;16.366;2022-12-18T06:13:43;61.05;;;56.30;;
33644;SDS011;19986;48.190;16.366;2022-12-18T06:16:09;59.53;;;55.03;;
33644;SDS011;19986;48.190;16.366;2022-12-18T06:18:35;62.47;;;57.67;;
33644;SDS011;19986;48.190;16.366;2022-12-18T06:21:01;59.65;;;54.35;;
33644;SDS011;19986;48.190;16.366;2022-12-18T06:23:29;62.60;;;57.72;;
33644;SDS011;19986;48.190;16.366;2022-12-18T06:25:55;58.00;;;53.65;;
33644;SDS011;19986;48.190;16.366;2022-12-18T06:28:21;59.28;;;54.85;;
33644;SDS011;19986;48.190;16.366;2022-12-18T06:30:48;57.65;;;53.47;;
33644;SDS011;19986;48.190;16.366;2022-12-18T06:33:14;60.38;;;55.85;;
33644;SDS011;19986;48.190;16.366;2022-12-18T06:35:41;61.03;;;56.53;;
33644;SDS011;19986;48.190;16.366;2022-12-18T06:38:08;60.53;;;55.85;;
33644;SDS011;19986;48.190;16.366;2022-12-18T06:40:35;60.72;;;56.20;;
33644;SDS011;19986;48.190;16.366;2022-12-18T06:43:04;58.75;;;54.25;;
33644;SDS011;19986;48.190;16.366;2022-12-18T06:45:30;61.13;;;56.58;;
33644;SDS011;19986;48.190;16.366;2022-12-18T06:47:56;61.95;;;57.53;;
33644;SDS011;19986;48.190;16.366;2022-12-18T06:50:22;62.17;;;57.00;;
33644;SDS011;19986;48.190;16.366;2022-12-18T06:52:48;61.72;;;56.97;;
33644;SDS011;19986;48.190;16.366;2022-12-18T06:55:14;59.28;;;54.75;;
33644;SDS011;19986;48.190;16.366;2022-12-18T06:57:42;62.40;;;57.72;;
33644;SDS011;19986;48.190;16.366;2022-12-18T07:00:08;61.55;;;56.83;;
33644;SDS011;19986;48.190;16.366;2022-12-18T07:02:49;61.08;;;56.58;;
33644;SDS011;19986;48.190;16.366;2022-12-18T07:05:15;60.63;;;55.97;;
33644;SDS011;19986;48.190;16.366;2022-12-18T07:07:42;63.95;;;58.70;;
33644;SDS011;19986;48.190;16.366;2022-12-18T07:10:08;61.08;;;56.30;;
33644;SDS011;19986;48.190;16.366;2022-12-18T07:12:34;60.90;;;56.10;;
33644;SDS011;19986;48.190;16.366;2022-12-18T07:15:03;64.35;;;59.25;;
33644;SDS011;19986;48.190;16.366;2022-12-18T07:17:31;61.75;;;56.90;;
33644;SDS011;19986;48.190;16.366;2022-12-18T07:20:01;65.00;;;59.90;;
33644;SDS011;19986;48.190;16.366;2022-12-18T07:22:27;62.13;;;57.40;;
33644;SDS011;19986;48.190;16.366;2022-12-18T07:24:53;64.38;;;59.22;;
33644;SDS011;19986;48.190;16.366;2022-12-18T07:27:19;63.33;;;58.50;;
33644;SDS011;19986;48.190;16.366;2022-12-18T07:29:45;64.18;;;58.80;;
33644;SDS011;19986;48.190;16.366;2022-12-18T07:32:10;65.10;;;59.70;;
33644;SDS011;19986;48.190;16.366;2022-12-18T07:34:38;68.95;;;63.45;;
33644;SDS011;19986;48.190;16.366;2022-12-18T07:37:19;69.07;;;62.85;;
33644;SDS011;19986;48.190;16.366;2022-12-18T07:39:46;66.90;;;61.03;;
33644;SDS011;19986;48.190;16.366;2022-12-18T07:42:12;66.75;;;61.28;;
33644;SDS011;19986;48.190;16.366;2022-12-18T07:45:10;68.45;;;62.88;;
33644;SDS011;19986;48.190;16.366;2022-12-18T07:47:36;66.47;;;60.63;;
33644;SDS011;19986;48.190;16.366;2022-12-18T07:50:03;67.53;;;61.75;;
33644;SDS011;19986;48.190;16.366;2022-12-18T07:52:29;69.05;;;63.30;;
33644;SDS011;19986;48.190;16.366;2022-12-18T07:54:57;69.78;;;63.97;;
33644;SDS011;19986;48.190;16.366;2022-12-18T07:57:23;70.00;;;64.20;;
33644;SDS011;19986;48.190;16.366;2022-12-18T07:59:48;69.13;;;63.50;;
33644;SDS011;19986;48.190;16.366;2022-12-18T08:02:14;68.55;;;62.67;;
33644;SDS011;19986;48.190;16.366;2022-12-18T08:04:40;68.68;;;62.78;;
33644;SDS011;19986;48.190;16.366;2022-12-18T08:07:06;67.40;;;61.80;;
33644;SDS011;19986;48.190;16.366;2022-12-18T08:09:32;66.07;;;60.58;;
33644;SDS011;19986;48.190;16.366;2022-12-18T08:11:58;67.45;;;61.25;;
33644;SDS011;19986;48.190;16.366;2022-12-18T08:14:24;69.60;;;63.50;;
33644;SDS011;19986;48.190;16.366;2022-12-18T08:16:50;65.57;;;60.13;;
33644;SDS011;19986;48.190;16.366;2022-12-18T08:19:17;67.60;;;61.92;;
33644;SDS011;19986;48.190;16.366;2022-12-18T08:21:43;72.97;;;66.70;;
33644;SDS011;19986;48.190;16.366;2022-12-18T08:24:09;69.93;;;64.00;;
33644;SDS011;19986;48.190;16.366;2022-12-18T08:26:36;69.03;;;63.13;;
33644;SDS011;19986;48.190;16.366;2022-12-18T08:29:02;71.40;;;65.43;;
33644;SDS011;19986;48.190;16.366;2022-12-18T08:31:28;72.35;;;66.03;;
33644;SDS011;19986;48.190;16.366;2022-12-18T08:33:55;69.65;;;63.58;;
33644;SDS011;19986;48.190;16.366;2022-12-18T08:36:22;71.47;;;65.13;;
33644;SDS011;19986;48.190;16.366;2022-12-18T08:38:49;69.07;;;63.10;;
33644;SDS011;19986;48.190;16.366;2022-12-18T08:41:16;71.03;;;64.47;;
33644;SDS011;19986;48.190;16.366;2022-12-18T08:43:42;72.55;;;66.05;;
33644;SDS011;19986;48.190;16.366;2022-12-18T08:46:27;71.00;;;64.53;;
33644;SDS011;19986;48.190;16.366;2022-12-18T08:49:02;71.32;;;64.43;;
33644;SDS011;19986;48.190;16.366;2022-12-18T08:51:29;74.85;;;68.32;;
33644;SDS011;19986;48.190;16.366;2022-12-18T08:53:55;72.90;;;66.38;;
33644;SDS011;19986;48.190;16.366;2022-12-18T08:56:20;74.50;;;67.43;;
33644;SDS011;19986;48.190;16.366;2022-12-18T08:58:46;73.70;;;66.72;;
33644;SDS011;19986;48.190;16.366;2022-12-18T09:01:12;71.82;;;65.32;;
33644;SDS011;19986;48.190;16.366;2022-12-18T09:03:39;73.93;;;67.32;;
33644;SDS011;19986;48.190;16.366;2022-12-18T09:06:05;70.72;;;64.18;;
33644;SDS011;19986;48.190;16.366;2022-12-18T09:08:32;72.20;;;65.78;;
33644;SDS011;19986;48.190;16.366;2022-12-18T09:11:00;69.30;;;63.30;;
33644;SDS011;19986;48.190;16.366;2022-12-18T09:13:26;69.68;;;63.33;;
33644;SDS011;19986;48.190;16.366;2022-12-18T09:15:53;72.45;;;65.95;;
33644;SDS011;19986;48.190;16.366;2022-12-18T09:18:21;77.00;;;68.32;;
33644;SDS011;19986;48.190;16.366;2022-12-18T09:20:49;72.70;;;66.10;;
33644;SDS011;19986;48.190;16.366;2022-12-18T09:23:18;71.53;;;65.18;;
33644;SDS011;19986;48.190;16.366;2022-12-18T09:25:45;71.65;;;65.13;;
33644;SDS011;19986;48.190;16.366;2022-12-18T09:28:15;70.30;;;63.63;;
33644;SDS011;19986;48.190;16.366;2022-12-18T09:30:50;72.70;;;66.35;;
33644;SDS011;19986;48.190;16.366;2022-12-18T09:33:17;70.45;;;64.03;;
33644;SDS011;19986;48.190;16.366;2022-12-18T09:35:44;72.70;;;66.10;;
33644;SDS011;19986;48.190;16.366;2022-12-18T09:38:11;90.38;;;65.82;;
33644;SDS011;19986;48.190;16.366;2022-12-18T09:40:42;71.88;;;65.57;;
33644;SDS011;19986;48.190;16.366;2022-12-18T09:46:19;69.53;;;63.35;;
33644;SDS011;19986;48.190;16.366;2022-12-18T09:48:51;72.90;;;66.30;;
33644;SDS011;19986;48.190;16.366;2022-12-18T09:51:43;67.63;;;61.80;;
33644;SDS011;19986;48.190;16.366;2022-12-18T09:54:22;71.03;;;64.55;;
33644;SDS011;19986;48.190;16.366;2022-12-18T09:56:55;102.82;;;68.50;;
33644;SDS011;19986;48.190;16.366;2022-12-18T09:59:24;70.95;;;64.13;;
33644;SDS011;19986;48.190;16.366;2022-12-18T10:01:56;67.75;;;61.70;;
33644;SDS011;19986;48.190;16.366;2022-12-18T10:04:23;70.28;;;64.05;;
33644;SDS011;19986;48.190;16.366;2022-12-18T10:09:30;71.47;;;65.05;;
33644;SDS011;19986;48.190;16.366;2022-12-18T10:14:47;68.90;;;62.17;;
33644;SDS011;19986;48.190;16.366;2022-12-18T10:20:14;68.95;;;62.60;;
33644;SDS011;19986;48.190;16.366;2022-12-18T10:25:29;69.88;;;63.25;;
33644;SDS011;19986;48.190;16.366;2022-12-18T10:28:13;72.88;;;66.30;;
33644;SDS011;19986;48.190;16.366;2022-12-18T10:30:40;69.65;;;63.13;;
33644;SDS011;19986;48.190;16.366;2022-12-18T10:33:10;69.35;;;62.35;;
33644;SDS011;19986;48.190;16.366;2022-12-18T10:35:42;67.25;;;61.38;;
33644;SDS011;19986;48.190;16.366;2022-12-18T10:40:58;69.50;;;63.20;;
33644;SDS011;19986;48.190;16.366;2022-12-18T10:43:35;67.95;;;61.67;;
33644;SDS011;19986;48.190;16.366;2022-12-18T10:48:55;68.65;;;62.35;;
33644;SDS011;19986;48.190;16.366;2022-12-18T10:53:57;68.85;;;62.45;;
33644;SDS011;19986;48.190;16.366;2022-12-18T10:56:27;68.88;;;62.63;;
33644;SDS011;19986;48.190;16.366;2022-12-18T10:58:56;69.65;;;63.25;;
33644;SDS011;19986;48.190;16.366;2022-12-18T11:01:51;69.38;;;62.78;;
33644;SDS011;19986;48.190;16.366;2022-12-18T11:04:24;72.93;;;65.57;;
33644;SDS011;19986;48.190;16.366;2022-12-18T11:06:58;70.18;;;63.90;;
33644;SDS011;19986;48.190;16.366;2022-12-18T11:09:30;72.13;;;65.75;;
33644;SDS011;19986;48.190;16.366;2022-12-18T11:11:59;105.95;;;70.10;;
33644;SDS011;19986;48.190;16.366;2022-12-18T11:14:29;74.00;;;66.95;;
33644;SDS011;19986;48.190;16.366;2022-12-18T11:16:59;70.03;;;63.85;;
33644;SDS011;19986;48.190;16.366;2022-12-18T11:19:30;81.28;;;73.47;;
33644;SDS011;19986;48.190;16.366;2022-12-18T11:21:57;75.47;;;67.47;;
33644;SDS011;19986;48.190;16.366;2022-12-18T11:24:28;71.32;;;65.03;;
33644;SDS011;19986;48.190;16.366;2022-12-18T11:26:57;71.10;;;64.07;;
33644;SDS011;19986;48.190;16.366;2022-12-18T11:29:28;72.25;;;65.50;;
33644;SDS011;19986;48.190;16.366;2022-12-18T11:37:40;70.93;;;63.85;;
33644;SDS011;19986;48.190;16.366;2022-12-18T11:40:22;71.90;;;65.30;;
33644;SDS011;19986;48.190;16.366;2022-12-18T11:42:56;73.80;;;65.65;;
33644;SDS011;19986;48.190;16.366;2022-12-18T11:45:34;69.30;;;63.00;;
33644;SDS011;19986;48.190;16.366;2022-12-18T11:53:21;72.65;;;65.95;;
33644;SDS011;19986;48.190;16.366;2022-12-18T11:55:56;69.95;;;63.80;;
33644;SDS011;19986;48.190;16.366;2022-12-18T12:09:40;72.50;;;65.43;;
33644;SDS011;19986;48.190;16.366;2022-12-18T12:21:05;68.28;;;61.38;;
33644;SDS011;19986;48.190;16.366;2022-12-18T12:26:43;73.38;;;66.90;;
33644;SDS011;19986;48.190;16.366;2022-12-18T12:29:32;74.55;;;67.50;;
33644;SDS011;19986;48.190;16.366;2022-12-18T12:40:26;68.93;;;62.60;;
33644;SDS011;19986;48.190;16.366;2022-12-18T12:42:55;74.75;;;67.50;;
33644;SDS011;19986;48.190;16.366;2022-12-18T12:53:50;73.68;;;66.70;;
33644;SDS011;19986;48.190;16.366;2022-12-18T12:56:18;73.50;;;66.60;;
33644;SDS011;19986;48.190;16.366;2022-12-18T13:04:26;77.63;;;69.63;;
33644;SDS011;19986;48.190;16.366;2022-12-18T13:07:06;79.65;;;71.97;;
33644;SDS011;19986;48.190;16.366;2022-12-18T13:15:28;70.70;;;64.40;;
33644;SDS011;19986;48.190;16.366;2022-12-18T13:20:35;75.50;;;68.32;;
33644;SDS011;19986;48.190;16.366;2022-12-18T13:25:59;75.97;;;69.03;;
33644;SDS011;19986;48.190;16.366;2022-12-18T13:31:01;76.38;;;69.43;;
33644;SDS011;19986;48.190;16.366;2022-12-18T13:36:12;73.30;;;66.35;;
33644;SDS011;19986;48.190;16.366;2022-12-18T13:38:42;73.28;;;66.43;;
33644;SDS011;19986;48.190;16.366;2022-12-18T13:43:42;74.65;;;67.38;;
33644;SDS011;19986;48.190;16.366;2022-12-18T13:46:28;75.15;;;68.05;;
33644;SDS011;19986;48.190;16.366;2022-12-18T13:51:55;90.93;;;66.57;;
33644;SDS011;19986;48.190;16.366;2022-12-18T13:54:39;74.90;;;68.15;;
33644;SDS011;19986;48.190;16.366;2022-12-18T13:59:51;74.53;;;66.80;;
33644;SDS011;19986;48.190;16.366;2022-12-18T14:02:20;72.40;;;65.43;;
33644;SDS011;19986;48.190;16.366;2022-12-18T14:04:48;76.40;;;68.30;;
33644;SDS011;19986;48.190;16.366;2022-12-18T14:07:22;77.78;;;70.45;;
33644;SDS011;19986;48.190;16.366;2022-12-18T14:09:58;74.95;;;67.47;;
33644;SDS011;19986;48.190;16.366;2022-12-18T14:12:32;77.72;;;69.38;;
33644;SDS011;19986;48.190;16.366;2022-12-18T14:17:47;76.32;;;68.65;;
33644;SDS011;19986;48.190;16.366;2022-12-18T14:20:15;78.60;;;70.82;;
33644;SDS011;19986;48.190;16.366;2022-12-18T14:22:45;75.68;;;68.25;;
33644;SDS011;19986;48.190;16.366;2022-12-18T14:25:15;77.60;;;69.72;;
33644;SDS011;19986;48.190;16.366;2022-12-18T14:27:48;75.75;;;68.22;;
33644;SDS011;19986;48.190;16.366;2022-12-18T14:30:26;79.53;;;71.47;;
33644;SDS011;19986;48.190;16.366;2022-12-18T14:33:05;80.10;;;71.82;;
33644;SDS011;19986;48.190;16.366;2022-12-18T14:35:35;78.20;;;70.32;;
33644;SDS011;19986;48.190;16.366;2022-12-18T14:38:18;81.63;;;73.40;;
33644;SDS011;19986;48.190;16.366;2022-12-18T14:41:32;85.82;;;75.40;;
33644;SDS011;19986;48.190;16.366;2022-12-18T14:43:41;84.53;;;75.32;;
33644;SDS011;19986;48.190;16.366;2022-12-18T14:49:24;82.40;;;73.93;;
33644;SDS011;19986;48.190;16.366;2022-12-18T14:51:56;81.10;;;72.43;;
33644;SDS011;19986;48.190;16.366;2022-12-18T14:54:24;79.95;;;71.50;;
33644;SDS011;19986;48.190;16.366;2022-12-18T14:57:36;83.55;;;74.75;;
33644;SDS011;19986;48.190;16.366;2022-12-18T14:59:51;83.78;;;75.03;;
33644;SDS011;19986;48.190;16.366;2022-12-18T15:02:27;84.75;;;75.70;;
33644;SDS011;19986;48.190;16.366;2022-12-18T15:05:01;84.20;;;75.10;;
33644;SDS011;19986;48.190;16.366;2022-12-18T15:07:42;82.05;;;73.18;;
33644;SDS011;19986;48.190;16.366;2022-12-18T15:10:21;85.15;;;76.20;;
33644;SDS011;19986;48.190;16.366;2022-12-18T15:20:53;85.10;;;75.85;;
33644;SDS011;19986;48.190;16.366;2022-12-18T15:23:28;85.10;;;76.13;;
33644;SDS011;19986;48.190;16.366;2022-12-18T15:26:12;83.57;;;75.10;;
33644;SDS011;19986;48.190;16.366;2022-12-18T15:33:43;80.65;;;72.15;;
33644;SDS011;19986;48.190;16.366;2022-12-18T15:36:24;84.78;;;75.70;;
33644;SDS011;19986;48.190;16.366;2022-12-18T15:38:52;81.20;;;72.90;;
33644;SDS011;19986;48.190;16.366;2022-12-18T15:41:20;80.13;;;71.82;;
33644;SDS011;19986;48.190;16.366;2022-12-18T15:43:48;82.82;;;74.25;;
33644;SDS011;19986;48.190;16.366;2022-12-18T15:46:19;80.30;;;71.80;;
33644;SDS011;19986;48.190;16.366;2022-12-18T15:48:53;77.93;;;69.78;;
33644;SDS011;19986;48.190;16.366;2022-12-18T15:51:28;82.40;;;74.25;;
33644;SDS011;19986;48.190;16.366;2022-12-18T15:53:58;84.45;;;76.05;;
33644;SDS011;19986;48.190;16.366;2022-12-18T15:56:26;82.43;;;74.35;;
33644;SDS011;19986;48.190;16.366;2022-12-18T15:59:12;77.43;;;69.45;;
33644;SDS011;19986;48.190;16.366;2022-12-18T16:01:40;79.55;;;71.57;;
33644;SDS011;19986;48.190;16.366;2022-12-18T16:04:12;79.00;;;71.38;;
33644;SDS011;19986;48.190;16.366;2022-12-18T16:06:41;79.30;;;70.95;;
33644;SDS011;19986;48.190;16.366;2022-12-18T16:09:09;77.85;;;70.07;;
33644;SDS011;19986;48.190;16.366;2022-12-18T16:11:36;82.45;;;73.78;;
33644;SDS011;19986;48.190;16.366;2022-12-18T16:16:49;77.80;;;69.55;;
33644;SDS011;19986;48.190;16.366;2022-12-18T16:19:17;79.35;;;71.13;;
33644;SDS011;19986;48.190;16.366;2022-12-18T16:21:45;82.53;;;73.97;;
33644;SDS011;19986;48.190;16.366;2022-12-18T16:24:15;78.65;;;70.45;;
33644;SDS011;19986;48.190;16.366;2022-12-18T16:26:44;77.70;;;69.75;;
33644;SDS011;19986;48.190;16.366;2022-12-18T16:29:10;78.70;;;70.70;;
33644;SDS011;19986;48.190;16.366;2022-12-18T16:31:54;77.85;;;70.30;;
33644;SDS011;19986;48.190;16.366;2022-12-18T16:34:22;81.47;;;66.28;;
33644;SDS011;19986;48.190;16.366;2022-12-18T16:36:54;75.47;;;67.72;;
33644;SDS011;19986;48.190;16.366;2022-12-18T16:39:26;80.63;;;72.68;;
33644;SDS011;19986;48.190;16.366;2022-12-18T16:41:53;81.43;;;73.43;;
33644;SDS011;19986;48.190;16.366;2022-12-18T16:44:19;76.70;;;69.45;;
33644;SDS011;19986;48.190;16.366;2022-12-18T16:46:48;75.60;;;68.18;;
33644;SDS011;19986;48.190;16.366;2022-12-18T16:49:15;78.57;;;71.35;;
33644;SDS011;19986;48.190;16.366;2022-12-18T16:51:42;74.93;;;67.63;;
33644;SDS011;19986;48.190;16.366;2022-12-18T16:54:11;71.68;;;64.78;;
33644;SDS011;19986;48.190;16.366;2022-12-18T16:56:37;76.88;;;70.10;;
33644;SDS011;19986;48.190;16.366;2022-12-18T16:59:04;72.82;;;65.85;;
33644;SDS011;19986;48.190;16.366;2022-12-18T17:01:31;74.20;;;67.18;;
33644;SDS011;19986;48.190;16.366;2022-12-18T17:04:03;73.30;;;66.50;;
33644;SDS011;19986;48.190;16.366;2022-12-18T17:06:32;71.65;;;64.85;;
33644;SDS011;19986;48.190;16.366;2022-12-18T17:09:12;73.65;;;66.65;;
33644;SDS011;19986;48.190;16.366;2022-12-18T17:11:42;70.38;;;63.90;;
33644;SDS011;19986;48.190;16.366;2022-12-18T17:14:11;73.93;;;67.20;;
33644;SDS011;19986;48.190;16.366;2022-12-18T17:16:39;75.18;;;67.85;;
33644;SDS011;19986;48.190;16.366;2022-12-18T17:19:06;75.53;;;68.70;;
33644;SDS011;19986;48.190;16.366;2022-12-18T17:21:34;73.50;;;66.75;;
33644;SDS011;19986;48.190;16.366;2022-12-18T17:24:00;76.45;;;69.53;;
33644;SDS011;19986;48.190;16.366;2022-12-18T17:26:28;73.75;;;66.95;;
33644;SDS011;19986;48.190;16.366;2022-12-18T17:28:55;76.45;;;69.45;;
33644;SDS011;19986;48.190;16.366;2022-12-18T17:31:24;71.85;;;65.15;;
33644;SDS011;19986;48.190;16.366;2022-12-18T17:33:52;76.30;;;69.15;;
33644;SDS011;19986;48.190;16.366;2022-12-18T17:36:19;73.32;;;66.28;;
33644;SDS011;19986;48.190;16.366;2022-12-18T17:38:53;75.50;;;68.82;;
33644;SDS011;19986;48.190;16.366;2022-12-18T17:41:21;72.82;;;65.90;;
33644;SDS011;19986;48.190;16.366;2022-12-18T17:46:17;72.95;;;66.15;;
33644;SDS011;19986;48.190;16.366;2022-12-18T17:48:44;74.13;;;67.35;;
33644;SDS011;19986;48.190;16.366;2022-12-18T17:51:11;76.53;;;69.25;;
33644;SDS011;19986;48.190;16.366;2022-12-18T17:53:37;75.25;;;68.45;;
33644;SDS011;19986;48.190;16.366;2022-12-18T17:56:04;71.85;;;65.18;;
33644;SDS011;19986;48.190;16.366;2022-12-18T17:58:33;75.10;;;68.28;;
33644;SDS011;19986;48.190;16.366;2022-12-18T18:01:01;74.40;;;67.90;;
33644;SDS011;19986;48.190;16.366;2022-12-18T18:03:30;77.05;;;69.68;;
33644;SDS011;19986;48.190;16.366;2022-12-18T18:05:57;73.22;;;66.35;;
33644;SDS011;19986;48.190;16.366;2022-12-18T18:08:25;71.03;;;64.50;;
33644;SDS011;19986;48.190;16.366;2022-12-18T18:10:52;76.63;;;67.82;;
33644;SDS011;19986;48.190;16.366;2022-12-18T18:13:21;75.75;;;68.90;;
33644;SDS011;19986;48.190;16.366;2022-12-18T18:16:08;71.07;;;64.25;;
33644;SDS011;19986;48.190;16.366;2022-12-18T18:18:37;72.13;;;65.50;;
33644;SDS011;19986;48.190;16.366;2022-12-18T18:21:07;74.07;;;67.38;;
33644;SDS011;19986;48.190;16.366;2022-12-18T18:23:33;75.55;;;68.28;;
33644;SDS011;19986;48.190;16.366;2022-12-18T18:26:04;76.05;;;68.97;;
33644;SDS011;19986;48.190;16.366;2022-12-18T18:28:33;74.35;;;67.70;;
33644;SDS011;19986;48.190;16.366;2022-12-18T18:31:09;72.20;;;65.75;;
33644;SDS011;19986;48.190;16.366;2022-12-18T18:33:36;69.68;;;63.42;;
33644;SDS011;19986;48.190;16.366;2022-12-18T18:36:03;73.07;;;66.60;;
33644;SDS011;19986;48.190;16.366;2022-12-18T18:38:30;66.95;;;61.03;;
33644;SDS011;19986;48.190;16.366;2022-12-18T18:41:01;67.80;;;61.85;;
33644;SDS011;19986;48.190;16.366;2022-12-18T18:43:30;70.40;;;64.30;;
33644;SDS011;19986;48.190;16.366;2022-12-18T18:45:57;65.63;;;60.25;;
33644;SDS011;19986;48.190;16.366;2022-12-18T18:48:25;66.07;;;60.28;;
33644;SDS011;19986;48.190;16.366;2022-12-18T18:51:05;68.45;;;62.08;;
33644;SDS011;19986;48.190;16.366;2022-12-18T18:53:36;70.57;;;64.65;;
33644;SDS011;19986;48.190;16.366;2022-12-18T18:56:12;69.10;;;63.15;;
33644;SDS011;19986;48.190;16.366;2022-12-18T18:58:40;70.68;;;64.30;;
33644;SDS011;19986;48.190;16.366;2022-12-18T19:01:18;68.68;;;62.53;;
33644;SDS011;19986;48.190;16.366;2022-12-18T19:03:46;66.25;;;60.58;;
33644;SDS011;19986;48.190;16.366;2022-12-18T19:06:18;71.55;;;65.18;;
33644;SDS011;19986;48.190;16.366;2022-12-18T19:08:47;68.88;;;62.90;;
33644;SDS011;19986;48.190;16.366;2022-12-18T19:11:14;72.13;;;65.43;;
33644;SDS011;19986;48.190;16.366;2022-12-18T19:14:01;71.28;;;64.88;;
33644;SDS011;19986;48.190;16.366;2022-12-18T19:16:30;70.65;;;64.28;;
33644;SDS011;19986;48.190;16.366;2022-12-18T19:18:58;68.40;;;62.03;;
33644;SDS011;19986;48.190;16.366;2022-12-18T19:21:25;72.70;;;66.22;;
33644;SDS011;19986;48.190;16.366;2022-12-18T19:23:52;71.32;;;65.10;;
33644;SDS011;19986;48.190;16.366;2022-12-18T19:26:19;73.53;;;66.75;;
33644;SDS011;19986;48.190;16.366;2022-12-18T19:28:47;69.45;;;63.10;;
33644;SDS011;19986;48.190;16.366;2022-12-18T19:31:14;69.60;;;63.25;;
33644;SDS011;19986;48.190;16.366;2022-12-18T19:33:43;72.35;;;65.75;;
33644;SDS011;19986;48.190;16.366;2022-12-18T19:36:18;70.28;;;63.80;;
33644;SDS011;19986;48.190;16.366;2022-12-18T19:38:47;74.30;;;67.70;;
33644;SDS011;19986;48.190;16.366;2022-12-18T19:41:15;73.85;;;67.10;;
33644;SDS011;19986;48.190;16.366;2022-12-18T19:43:45;71.70;;;65.03;;
33644;SDS011;19986;48.190;16.366;2022-12-18T19:46:12;70.65;;;64.32;;
33644;SDS011;19986;48.190;16.366;2022-12-18T19:48:41;68.38;;;62.15;;
33644;SDS011;19986;48.190;16.366;2022-12-18T19:51:11;70.40;;;64.00;;
33644;SDS011;19986;48.190;16.366;2022-12-18T19:53:41;70.15;;;63.63;;
33644;SDS011;19986;48.190;16.366;2022-12-18T19:56:09;71.03;;;64.85;;
33644;SDS011;19986;48.190;16.366;2022-12-18T19:58:43;70.35;;;63.75;;
33644;SDS011;19986;48.190;16.366;2022-12-18T20:01:15;73.68;;;66.97;;
33644;SDS011;19986;48.190;16.366;2022-12-18T20:03:58;73.43;;;66.82;;
33644;SDS011;19986;48.190;16.366;2022-12-18T20:06:26;73.40;;;66.53;;
33644;SDS011;19986;48.190;16.366;2022-12-18T20:08:58;74.63;;;67.75;;
33644;SDS011;19986;48.190;16.366;2022-12-18T20:11:29;74.38;;;67.78;;
33644;SDS011;19986;48.190;16.366;2022-12-18T20:13:57;72.03;;;65.40;;
33644;SDS011;19986;48.190;16.366;2022-12-18T20:16:29;72.57;;;66.05;;
33644;SDS011;19986;48.190;16.366;2022-12-18T20:18:55;72.68;;;65.97;;
33644;SDS011;19986;48.190;16.366;2022-12-18T20:21:22;73.00;;;66.63;;
33644;SDS011;19986;48.190;16.366;2022-12-18T20:23:51;73.03;;;66.43;;
33644;SDS011;19986;48.190;16.366;2022-12-18T20:26:20;70.68;;;64.28;;
33644;SDS011;19986;48.190;16.366;2022-12-18T20:28:48;77.75;;;70.25;;
33644;SDS011;19986;48.190;16.366;2022-12-18T20:31:18;75.22;;;68.43;;
33644;SDS011;19986;48.190;16.366;2022-12-18T20:33:45;75.70;;;68.95;;
33644;SDS011;19986;48.190;16.366;2022-12-18T20:36:12;75.15;;;68.68;;
33644;SDS011;19986;48.190;16.366;2022-12-18T20:38:42;71.40;;;64.65;;
33644;SDS011;19986;48.190;16.366;2022-12-18T20:41:08;72.90;;;66.35;;
33644;SDS011;19986;48.190;16.366;2022-12-18T20:43:40;76.35;;;69.53;;
33644;SDS011;19986;48.190;16.366;2022-12-18T20:46:08;74.32;;;67.80;;
33644;SDS011;19986;48.190;16.366;2022-12-18T20:48:35;75.07;;;68.30;;
33644;SDS011;19986;48.190;16.366;2022-12-18T20:51:06;73.50;;;66.90;;
33644;SDS011;19986;48.190;16.366;2022-12-18T20:53:35;72.95;;;66.50;;
33644;SDS011;19986;48.190;16.366;2022-12-18T20:56:05;77.20;;;70.35;;
33644;SDS011;19986;48.190;16.366;2022-12-18T20:58:36;74.40;;;67.80;;
